sensor_id;sensor_type;location;lat;lon;timestamp;P1;durP1;ratioP1;P2;durP2;ratioP2
66609;SDS011;53468;48.276;14.416;2023-03-14T00:00:36;4.35;;;1.90;;
66609;SDS011;53468;48.276;14.416;2023-03-14T00:05:38;2.65;;;1.35;;
66609;SDS011;53468;48.276;14.416;2023-03-14T00:10:40;6.47;;;2.22;;
66609;SDS011;53468;48.276;14.416;2023-03-14T00:15:44;3.22;;;1.63;;
66609;SDS011;53468;48.276;14.416;2023-03-14T00:20:46;4.32;;;1.88;;
66609;SDS011;53468;48.276;14.416;2023-03-14T00:25:48;4.05;;;1.40;;
66609;SDS011;53468;48.276;14.416;2023-03-14T00:30:52;5.82;;;2.90;;
66609;SDS011;53468;48.276;14.416;2023-03-14T00:35:55;8.98;;;4.05;;
66609;SDS011;53468;48.276;14.416;2023-03-14T00:40:58;7.25;;;2.60;;
66609;SDS011;53468;48.276;14.416;2023-03-14T00:46:02;11.25;;;4.85;;
66609;SDS011;53468;48.276;14.416;2023-03-14T00:51:06;10.25;;;5.35;;
66609;SDS011;53468;48.276;14.416;2023-03-14T00:56:10;16.67;;;5.22;;
66609;SDS011;53468;48.276;14.416;2023-03-14T01:01:15;12.20;;;6.57;;
66609;SDS011;53468;48.276;14.416;2023-03-14T01:06:19;9.68;;;6.03;;
66609;SDS011;53468;48.276;14.416;2023-03-14T01:11:23;11.90;;;6.15;;
66609;SDS011;53468;48.276;14.416;2023-03-14T01:16:29;16.73;;;6.68;;
66609;SDS011;53468;48.276;14.416;2023-03-14T01:21:33;14.00;;;7.05;;
66609;SDS011;53468;48.276;14.416;2023-03-14T01:26:36;12.18;;;6.07;;
66609;SDS011;53468;48.276;14.416;2023-03-14T01:31:39;8.68;;;5.30;;
66609;SDS011;53468;48.276;14.416;2023-03-14T01:36:41;10.18;;;5.63;;
66609;SDS011;53468;48.276;14.416;2023-03-14T01:41:43;10.68;;;5.13;;
66609;SDS011;53468;48.276;14.416;2023-03-14T01:46:47;10.20;;;6.03;;
66609;SDS011;53468;48.276;14.416;2023-03-14T01:51:50;13.93;;;6.13;;
66609;SDS011;53468;48.276;14.416;2023-03-14T01:56:57;10.98;;;6.32;;
66609;SDS011;53468;48.276;14.416;2023-03-14T02:02:05;10.20;;;5.47;;
66609;SDS011;53468;48.276;14.416;2023-03-14T02:07:12;8.20;;;5.07;;
66609;SDS011;53468;48.276;14.416;2023-03-14T02:12:17;9.75;;;4.75;;
66609;SDS011;53468;48.276;14.416;2023-03-14T02:17:23;8.10;;;4.47;;
66609;SDS011;53468;48.276;14.416;2023-03-14T02:22:26;12.15;;;4.97;;
66609;SDS011;53468;48.276;14.416;2023-03-14T02:27:29;9.55;;;4.53;;
66609;SDS011;53468;48.276;14.416;2023-03-14T02:32:32;9.65;;;5.13;;
66609;SDS011;53468;48.276;14.416;2023-03-14T02:37:38;9.93;;;5.10;;
66609;SDS011;53468;48.276;14.416;2023-03-14T02:42:45;10.93;;;5.13;;
66609;SDS011;53468;48.276;14.416;2023-03-14T02:47:49;8.75;;;4.97;;
66609;SDS011;53468;48.276;14.416;2023-03-14T02:52:55;7.95;;;4.70;;
66609;SDS011;53468;48.276;14.416;2023-03-14T02:57:58;11.55;;;5.57;;
66609;SDS011;53468;48.276;14.416;2023-03-14T03:03:01;10.77;;;5.55;;
66609;SDS011;53468;48.276;14.416;2023-03-14T03:08:03;7.85;;;5.18;;
66609;SDS011;53468;48.276;14.416;2023-03-14T03:13:07;10.85;;;5.75;;
66609;SDS011;53468;48.276;14.416;2023-03-14T03:18:09;10.90;;;5.57;;
66609;SDS011;53468;48.276;14.416;2023-03-14T03:23:12;8.23;;;5.10;;
66609;SDS011;53468;48.276;14.416;2023-03-14T03:28:16;10.95;;;5.53;;
66609;SDS011;53468;48.276;14.416;2023-03-14T03:33:18;9.20;;;5.93;;
66609;SDS011;53468;48.276;14.416;2023-03-14T03:38:22;9.20;;;5.80;;
66609;SDS011;53468;48.276;14.416;2023-03-14T03:43:26;13.88;;;6.78;;
66609;SDS011;53468;48.276;14.416;2023-03-14T03:48:28;16.50;;;8.88;;
66609;SDS011;53468;48.276;14.416;2023-03-14T03:53:33;11.07;;;6.85;;
66609;SDS011;53468;48.276;14.416;2023-03-14T03:58:37;16.52;;;7.00;;
66609;SDS011;53468;48.276;14.416;2023-03-14T04:03:39;10.65;;;6.03;;
66609;SDS011;53468;48.276;14.416;2023-03-14T04:08:42;9.25;;;6.38;;
66609;SDS011;53468;48.276;14.416;2023-03-14T04:13:45;10.10;;;5.60;;
66609;SDS011;53468;48.276;14.416;2023-03-14T04:18:47;10.07;;;5.90;;
66609;SDS011;53468;48.276;14.416;2023-03-14T04:23:50;9.50;;;5.05;;
66609;SDS011;53468;48.276;14.416;2023-03-14T04:28:53;12.70;;;5.60;;
66609;SDS011;53468;48.276;14.416;2023-03-14T04:33:56;12.18;;;5.47;;
66609;SDS011;53468;48.276;14.416;2023-03-14T04:38:57;11.13;;;4.60;;
66609;SDS011;53468;48.276;14.416;2023-03-14T04:44:01;8.07;;;3.90;;
66609;SDS011;53468;48.276;14.416;2023-03-14T04:49:03;6.40;;;4.22;;
66609;SDS011;53468;48.276;14.416;2023-03-14T04:54:05;6.22;;;3.42;;
66609;SDS011;53468;48.276;14.416;2023-03-14T04:59:08;10.27;;;3.95;;
66609;SDS011;53468;48.276;14.416;2023-03-14T05:04:10;8.95;;;4.10;;
66609;SDS011;53468;48.276;14.416;2023-03-14T05:09:12;8.25;;;4.65;;
66609;SDS011;53468;48.276;14.416;2023-03-14T05:14:16;9.43;;;6.20;;
66609;SDS011;53468;48.276;14.416;2023-03-14T05:19:19;12.23;;;6.75;;
66609;SDS011;53468;48.276;14.416;2023-03-14T05:24:21;12.30;;;8.13;;
66609;SDS011;53468;48.276;14.416;2023-03-14T05:29:24;10.52;;;5.97;;
66609;SDS011;53468;48.276;14.416;2023-03-14T05:34:26;13.23;;;6.10;;
66609;SDS011;53468;48.276;14.416;2023-03-14T05:39:28;10.25;;;5.55;;
66609;SDS011;53468;48.276;14.416;2023-03-14T05:44:32;11.00;;;5.38;;
66609;SDS011;53468;48.276;14.416;2023-03-14T05:49:34;15.68;;;6.57;;
66609;SDS011;53468;48.276;14.416;2023-03-14T05:54:36;10.45;;;6.53;;
66609;SDS011;53468;48.276;14.416;2023-03-14T05:59:40;11.52;;;6.20;;
66609;SDS011;53468;48.276;14.416;2023-03-14T06:04:42;9.70;;;5.30;;
66609;SDS011;53468;48.276;14.416;2023-03-14T06:09:44;8.80;;;5.82;;
66609;SDS011;53468;48.276;14.416;2023-03-14T06:14:47;12.45;;;6.40;;
66609;SDS011;53468;48.276;14.416;2023-03-14T06:19:51;8.23;;;5.40;;
66609;SDS011;53468;48.276;14.416;2023-03-14T06:55:27;16.80;;;7.68;;
66609;SDS011;53468;48.276;14.416;2023-03-14T07:00:33;11.60;;;6.47;;
66609;SDS011;53468;48.276;14.416;2023-03-14T07:05:35;11.70;;;8.23;;
66609;SDS011;53468;48.276;14.416;2023-03-14T07:10:40;12.50;;;8.30;;
66609;SDS011;53468;48.276;14.416;2023-03-14T07:15:48;13.52;;;8.32;;
66609;SDS011;53468;48.276;14.416;2023-03-14T07:20:51;17.00;;;8.45;;
66609;SDS011;53468;48.276;14.416;2023-03-14T07:31:26;12.32;;;8.45;;
66609;SDS011;53468;48.276;14.416;2023-03-14T07:36:29;12.07;;;7.18;;
66609;SDS011;53468;48.276;14.416;2023-03-14T07:41:34;10.70;;;6.95;;
66609;SDS011;53468;48.276;14.416;2023-03-14T07:46:37;13.20;;;7.85;;
66609;SDS011;53468;48.276;14.416;2023-03-14T07:51:43;13.05;;;7.45;;
66609;SDS011;53468;48.276;14.416;2023-03-14T07:56:49;10.43;;;6.35;;
66609;SDS011;53468;48.276;14.416;2023-03-14T08:01:59;11.98;;;6.18;;
66609;SDS011;53468;48.276;14.416;2023-03-14T08:07:12;10.85;;;5.25;;
66609;SDS011;53468;48.276;14.416;2023-03-14T08:12:19;8.32;;;4.95;;
66609;SDS011;53468;48.276;14.416;2023-03-14T08:17:23;7.80;;;4.63;;
66609;SDS011;53468;48.276;14.416;2023-03-14T08:22:26;6.82;;;3.22;;
66609;SDS011;53468;48.276;14.416;2023-03-14T08:27:32;5.60;;;3.22;;
66609;SDS011;53468;48.276;14.416;2023-03-14T08:32:34;5.35;;;2.13;;
66609;SDS011;53468;48.276;14.416;2023-03-14T08:37:37;4.15;;;0.90;;
66609;SDS011;53468;48.276;14.416;2023-03-14T08:42:43;1.52;;;0.80;;
66609;SDS011;53468;48.276;14.416;2023-03-14T08:47:46;1.75;;;0.50;;
66609;SDS011;53468;48.276;14.416;2023-03-14T08:52:49;1.42;;;0.57;;
66609;SDS011;53468;48.276;14.416;2023-03-14T08:57:53;3.95;;;1.90;;
66609;SDS011;53468;48.276;14.416;2023-03-14T09:02:56;2.35;;;0.57;;
66609;SDS011;53468;48.276;14.416;2023-03-14T09:07:58;1.90;;;0.50;;
66609;SDS011;53468;48.276;14.416;2023-03-14T09:13:02;1.17;;;0.30;;
66609;SDS011;53468;48.276;14.416;2023-03-14T09:18:04;1.45;;;0.40;;
66609;SDS011;53468;48.276;14.416;2023-03-14T09:23:06;1.15;;;0.28;;
66609;SDS011;53468;48.276;14.416;2023-03-14T09:28:10;0.30;;;0.30;;
66609;SDS011;53468;48.276;14.416;2023-03-14T09:33:12;0.73;;;0.40;;
66609;SDS011;53468;48.276;14.416;2023-03-14T09:38:14;1.15;;;0.20;;
66609;SDS011;53468;48.276;14.416;2023-03-14T09:43:19;1.92;;;0.50;;
66609;SDS011;53468;48.276;14.416;2023-03-14T09:48:26;0.50;;;0.30;;
66609;SDS011;53468;48.276;14.416;2023-03-14T09:53:37;3.67;;;0.47;;
66609;SDS011;53468;48.276;14.416;2023-03-14T09:58:43;1.38;;;0.45;;
66609;SDS011;53468;48.276;14.416;2023-03-14T10:03:53;3.17;;;0.50;;
66609;SDS011;53468;48.276;14.416;2023-03-14T10:08:57;1.55;;;0.65;;
66609;SDS011;53468;48.276;14.416;2023-03-14T10:14:05;2.97;;;0.73;;
66609;SDS011;53468;48.276;14.416;2023-03-14T10:19:09;1.77;;;0.60;;
66609;SDS011;53468;48.276;14.416;2023-03-14T10:24:19;3.25;;;0.80;;
66609;SDS011;53468;48.276;14.416;2023-03-14T10:29:24;1.05;;;0.50;;
66609;SDS011;53468;48.276;14.416;2023-03-14T10:34:28;0.43;;;0.30;;
66609;SDS011;53468;48.276;14.416;2023-03-14T10:39:37;3.10;;;1.05;;
66609;SDS011;53468;48.276;14.416;2023-03-14T10:44:45;1.05;;;0.45;;
66609;SDS011;53468;48.276;14.416;2023-03-14T10:49:49;1.83;;;0.90;;
66609;SDS011;53468;48.276;14.416;2023-03-14T10:54:53;1.50;;;0.95;;
66609;SDS011;53468;48.276;14.416;2023-03-14T10:59:59;0.57;;;0.32;;
66609;SDS011;53468;48.276;14.416;2023-03-14T11:05:12;1.65;;;0.50;;
66609;SDS011;53468;48.276;14.416;2023-03-14T11:10:24;0.93;;;0.45;;
66609;SDS011;53468;48.276;14.416;2023-03-14T11:15:34;1.05;;;0.50;;
66609;SDS011;53468;48.276;14.416;2023-03-14T11:20:41;3.65;;;0.95;;
66609;SDS011;53468;48.276;14.416;2023-03-14T11:25:51;1.20;;;0.30;;
66609;SDS011;53468;48.276;14.416;2023-03-14T11:31:03;9.50;;;1.00;;
66609;SDS011;53468;48.276;14.416;2023-03-14T11:36:11;0.80;;;0.30;;
66609;SDS011;53468;48.276;14.416;2023-03-14T11:41:19;1.13;;;0.80;;
66609;SDS011;53468;48.276;14.416;2023-03-14T11:46:27;1.17;;;0.50;;
66609;SDS011;53468;48.276;14.416;2023-03-14T11:51:32;1.55;;;0.50;;
66609;SDS011;53468;48.276;14.416;2023-03-14T11:56:37;1.45;;;0.43;;
66609;SDS011;53468;48.276;14.416;2023-03-14T12:01:57;2.35;;;0.80;;
66609;SDS011;53468;48.276;14.416;2023-03-14T12:07:03;2.03;;;0.90;;
66609;SDS011;53468;48.276;14.416;2023-03-14T12:12:16;2.05;;;0.80;;
66609;SDS011;53468;48.276;14.416;2023-03-14T12:17:23;2.63;;;0.55;;
66609;SDS011;53468;48.276;14.416;2023-03-14T12:22:27;2.28;;;0.63;;
66609;SDS011;53468;48.276;14.416;2023-03-14T12:27:42;0.50;;;0.30;;
66609;SDS011;53468;48.276;14.416;2023-03-14T12:38:14;2.30;;;0.65;;
66609;SDS011;53468;48.276;14.416;2023-03-14T12:43:24;1.52;;;0.50;;
66609;SDS011;53468;48.276;14.416;2023-03-14T12:48:29;0.20;;;0.20;;
66609;SDS011;53468;48.276;14.416;2023-03-14T12:59:05;0.85;;;0.30;;
66609;SDS011;53468;48.276;14.416;2023-03-14T13:04:35;0.63;;;0.20;;
66609;SDS011;53468;48.276;14.416;2023-03-14T13:09:50;1.17;;;0.68;;
66609;SDS011;53468;48.276;14.416;2023-03-14T13:14:57;1.23;;;0.43;;
66609;SDS011;53468;48.276;14.416;2023-03-14T13:20:03;0.90;;;0.40;;
66609;SDS011;53468;48.276;14.416;2023-03-14T13:25:13;0.85;;;0.47;;
66609;SDS011;53468;48.276;14.416;2023-03-14T13:30:18;0.98;;;0.30;;
66609;SDS011;53468;48.276;14.416;2023-03-14T13:35:38;0.90;;;0.30;;
66609;SDS011;53468;48.276;14.416;2023-03-14T13:45:45;1.10;;;0.40;;
66609;SDS011;53468;48.276;14.416;2023-03-14T13:51:00;1.73;;;0.40;;
66609;SDS011;53468;48.276;14.416;2023-03-14T13:56:04;2.30;;;0.65;;
66609;SDS011;53468;48.276;14.416;2023-03-14T14:01:13;1.73;;;0.70;;
66609;SDS011;53468;48.276;14.416;2023-03-14T14:06:28;1.67;;;0.60;;
66609;SDS011;53468;48.276;14.416;2023-03-14T14:11:35;3.15;;;0.73;;
66609;SDS011;53468;48.276;14.416;2023-03-14T14:16:43;2.47;;;0.93;;
66609;SDS011;53468;48.276;14.416;2023-03-14T14:21:47;1.23;;;0.60;;
66609;SDS011;53468;48.276;14.416;2023-03-14T14:26:50;1.05;;;0.50;;
66609;SDS011;53468;48.276;14.416;2023-03-14T14:32:00;0.95;;;0.40;;
66609;SDS011;53468;48.276;14.416;2023-03-14T14:37:04;0.13;;;0.13;;
66609;SDS011;53468;48.276;14.416;2023-03-14T14:42:12;0.50;;;0.28;;
66609;SDS011;53468;48.276;14.416;2023-03-14T14:47:15;0.73;;;0.20;;
66609;SDS011;53468;48.276;14.416;2023-03-14T14:52:30;0.10;;;0.10;;
66609;SDS011;53468;48.276;14.416;2023-03-14T14:57:37;4.40;;;1.00;;
66609;SDS011;53468;48.276;14.416;2023-03-14T15:02:41;0.22;;;0.10;;
66609;SDS011;53468;48.276;14.416;2023-03-14T15:07:50;1.52;;;0.60;;
66609;SDS011;53468;48.276;14.416;2023-03-14T15:12:52;1.55;;;0.40;;
66609;SDS011;53468;48.276;14.416;2023-03-14T15:17:55;1.33;;;0.50;;
66609;SDS011;53468;48.276;14.416;2023-03-14T15:22:58;0.85;;;0.22;;
66609;SDS011;53468;48.276;14.416;2023-03-14T15:28:00;0.30;;;0.10;;
66609;SDS011;53468;48.276;14.416;2023-03-14T15:33:03;0.00;;;0.00;;
66609;SDS011;53468;48.276;14.416;2023-03-14T15:38:11;0.30;;;0.10;;
66609;SDS011;53468;48.276;14.416;2023-03-14T15:43:13;0.00;;;0.00;;
66609;SDS011;53468;48.276;14.416;2023-03-14T15:48:16;0.47;;;0.10;;
66609;SDS011;53468;48.276;14.416;2023-03-14T15:53:21;1.65;;;0.20;;
66609;SDS011;53468;48.276;14.416;2023-03-14T15:58:23;0.65;;;0.20;;
66609;SDS011;53468;48.276;14.416;2023-03-14T16:03:25;1.77;;;1.17;;
66609;SDS011;53468;48.276;14.416;2023-03-14T16:08:29;0.93;;;0.30;;
66609;SDS011;53468;48.276;14.416;2023-03-14T16:13:32;1.42;;;0.68;;
66609;SDS011;53468;48.276;14.416;2023-03-14T16:18:36;5.90;;;2.00;;
66609;SDS011;53468;48.276;14.416;2023-03-14T16:23:41;3.17;;;0.73;;
66609;SDS011;53468;48.276;14.416;2023-03-14T16:28:44;6.43;;;1.73;;
66609;SDS011;53468;48.276;14.416;2023-03-14T16:33:50;4.72;;;1.85;;
66609;SDS011;53468;48.276;14.416;2023-03-14T16:38:58;3.10;;;1.08;;
66609;SDS011;53468;48.276;14.416;2023-03-14T16:44:02;1.00;;;0.43;;
66609;SDS011;53468;48.276;14.416;2023-03-14T16:49:06;1.50;;;0.65;;
66609;SDS011;53468;48.276;14.416;2023-03-14T16:54:20;1.38;;;0.75;;
66609;SDS011;53468;48.276;14.416;2023-03-14T16:59:23;1.73;;;0.88;;
66609;SDS011;53468;48.276;14.416;2023-03-14T17:04:28;3.47;;;0.73;;
66609;SDS011;53468;48.276;14.416;2023-03-14T17:09:36;1.08;;;0.43;;
66609;SDS011;53468;48.276;14.416;2023-03-14T17:14:52;1.83;;;0.73;;
66609;SDS011;53468;48.276;14.416;2023-03-14T17:19:55;2.55;;;0.40;;
66609;SDS011;53468;48.276;14.416;2023-03-14T17:25:00;0.30;;;0.30;;
66609;SDS011;53468;48.276;14.416;2023-03-14T17:30:03;0.75;;;0.40;;
66609;SDS011;53468;48.276;14.416;2023-03-14T17:35:06;0.20;;;0.10;;
66609;SDS011;53468;48.276;14.416;2023-03-14T17:40:11;1.23;;;0.30;;
66609;SDS011;53468;48.276;14.416;2023-03-14T17:45:13;0.68;;;0.22;;
66609;SDS011;53468;48.276;14.416;2023-03-14T17:50:16;2.40;;;0.70;;
66609;SDS011;53468;48.276;14.416;2023-03-14T17:55:20;3.15;;;0.43;;
66609;SDS011;53468;48.276;14.416;2023-03-14T18:00:22;3.53;;;0.93;;
66609;SDS011;53468;48.276;14.416;2023-03-14T18:05:24;0.65;;;0.40;;
66609;SDS011;53468;48.276;14.416;2023-03-14T18:10:30;1.15;;;0.45;;
66609;SDS011;53468;48.276;14.416;2023-03-14T18:15:32;1.02;;;0.35;;
66609;SDS011;53468;48.276;14.416;2023-03-14T18:20:35;2.13;;;0.65;;
66609;SDS011;53468;48.276;14.416;2023-03-14T18:25:40;1.38;;;0.40;;
66609;SDS011;53468;48.276;14.416;2023-03-14T18:30:42;0.82;;;0.40;;
66609;SDS011;53468;48.276;14.416;2023-03-14T18:35:51;1.40;;;0.50;;
66609;SDS011;53468;48.276;14.416;2023-03-14T18:40:55;1.52;;;0.50;;
66609;SDS011;53468;48.276;14.416;2023-03-14T18:45:57;3.08;;;1.30;;
66609;SDS011;53468;48.276;14.416;2023-03-14T18:50:59;2.95;;;0.75;;
66609;SDS011;53468;48.276;14.416;2023-03-14T18:56:04;2.72;;;0.77;;
66609;SDS011;53468;48.276;14.416;2023-03-14T19:01:07;1.98;;;0.90;;
66609;SDS011;53468;48.276;14.416;2023-03-14T19:06:10;4.18;;;1.27;;
66609;SDS011;53468;48.276;14.416;2023-03-14T19:11:14;2.55;;;1.00;;
66609;SDS011;53468;48.276;14.416;2023-03-14T19:16:17;3.40;;;1.40;;
66609;SDS011;53468;48.276;14.416;2023-03-14T19:21:24;3.42;;;1.00;;
66609;SDS011;53468;48.276;14.416;2023-03-14T19:26:29;1.75;;;0.90;;
66609;SDS011;53468;48.276;14.416;2023-03-14T19:31:31;2.75;;;1.10;;
66609;SDS011;53468;48.276;14.416;2023-03-14T19:36:34;1.92;;;1.05;;
66609;SDS011;53468;48.276;14.416;2023-03-14T19:41:39;2.88;;;0.88;;
66609;SDS011;53468;48.276;14.416;2023-03-14T19:46:41;3.20;;;0.85;;
66609;SDS011;53468;48.276;14.416;2023-03-14T19:51:44;1.60;;;0.80;;
66609;SDS011;53468;48.276;14.416;2023-03-14T19:56:49;2.65;;;0.82;;
66609;SDS011;53468;48.276;14.416;2023-03-14T20:01:52;4.15;;;0.75;;
66609;SDS011;53468;48.276;14.416;2023-03-14T20:07:02;7.10;;;0.80;;
66609;SDS011;53468;48.276;14.416;2023-03-14T20:12:09;3.53;;;0.85;;
66609;SDS011;53468;48.276;14.416;2023-03-14T20:17:11;3.92;;;1.23;;
66609;SDS011;53468;48.276;14.416;2023-03-14T20:22:17;6.82;;;1.35;;
66609;SDS011;53468;48.276;14.416;2023-03-14T20:27:20;4.60;;;1.42;;
66609;SDS011;53468;48.276;14.416;2023-03-14T20:32:25;3.13;;;1.63;;
66609;SDS011;53468;48.276;14.416;2023-03-14T20:37:28;2.28;;;1.23;;
66609;SDS011;53468;48.276;14.416;2023-03-14T20:42:33;4.32;;;0.90;;
66609;SDS011;53468;48.276;14.416;2023-03-14T20:47:35;4.13;;;0.95;;
66609;SDS011;53468;48.276;14.416;2023-03-14T20:52:37;4.35;;;0.98;;
66609;SDS011;53468;48.276;14.416;2023-03-14T20:57:41;5.65;;;1.25;;
66609;SDS011;53468;48.276;14.416;2023-03-14T21:02:43;6.57;;;1.50;;
66609;SDS011;53468;48.276;14.416;2023-03-14T21:07:46;4.90;;;1.70;;
66609;SDS011;53468;48.276;14.416;2023-03-14T21:12:49;2.78;;;1.15;;
66609;SDS011;53468;48.276;14.416;2023-03-14T21:17:51;4.50;;;1.40;;
66609;SDS011;53468;48.276;14.416;2023-03-14T21:22:54;3.58;;;0.98;;
66609;SDS011;53468;48.276;14.416;2023-03-14T21:27:57;2.22;;;0.93;;
66609;SDS011;53468;48.276;14.416;2023-03-14T21:33:01;2.10;;;1.10;;
66609;SDS011;53468;48.276;14.416;2023-03-14T21:38:03;1.83;;;0.93;;
66609;SDS011;53468;48.276;14.416;2023-03-14T21:43:07;2.08;;;0.80;;
66609;SDS011;53468;48.276;14.416;2023-03-14T21:48:09;1.48;;;0.80;;
66609;SDS011;53468;48.276;14.416;2023-03-14T21:53:11;1.40;;;0.65;;
66609;SDS011;53468;48.276;14.416;2023-03-14T21:58:15;1.60;;;0.70;;
66609;SDS011;53468;48.276;14.416;2023-03-14T22:03:18;1.73;;;0.68;;
66609;SDS011;53468;48.276;14.416;2023-03-14T22:08:22;3.67;;;1.05;;
66609;SDS011;53468;48.276;14.416;2023-03-14T22:13:25;2.80;;;0.60;;
66609;SDS011;53468;48.276;14.416;2023-03-14T22:18:27;3.53;;;0.90;;
66609;SDS011;53468;48.276;14.416;2023-03-14T22:23:30;3.08;;;1.20;;
66609;SDS011;53468;48.276;14.416;2023-03-14T22:28:33;4.80;;;1.10;;
66609;SDS011;53468;48.276;14.416;2023-03-14T22:33:36;6.55;;;1.45;;
66609;SDS011;53468;48.276;14.416;2023-03-14T22:38:38;5.40;;;1.35;;
66609;SDS011;53468;48.276;14.416;2023-03-14T22:43:43;3.83;;;1.40;;
66609;SDS011;53468;48.276;14.416;2023-03-14T22:48:48;1.88;;;1.10;;
66609;SDS011;53468;48.276;14.416;2023-03-14T22:53:50;3.40;;;1.20;;
66609;SDS011;53468;48.276;14.416;2023-03-14T22:58:55;3.97;;;1.17;;
66609;SDS011;53468;48.276;14.416;2023-03-14T23:03:57;3.90;;;1.17;;
66609;SDS011;53468;48.276;14.416;2023-03-14T23:08:59;3.08;;;1.20;;
66609;SDS011;53468;48.276;14.416;2023-03-14T23:14:05;6.75;;;1.48;;
66609;SDS011;53468;48.276;14.416;2023-03-14T23:19:07;4.25;;;1.42;;
66609;SDS011;53468;48.276;14.416;2023-03-14T23:24:10;2.88;;;1.00;;
66609;SDS011;53468;48.276;14.416;2023-03-14T23:29:13;2.25;;;1.15;;
66609;SDS011;53468;48.276;14.416;2023-03-14T23:34:16;3.00;;;1.23;;
66609;SDS011;53468;48.276;14.416;2023-03-14T23:39:18;2.53;;;1.30;;
66609;SDS011;53468;48.276;14.416;2023-03-14T23:44:21;3.03;;;1.20;;
66609;SDS011;53468;48.276;14.416;2023-03-14T23:49:25;4.07;;;1.58;;
66609;SDS011;53468;48.276;14.416;2023-03-14T23:54:27;7.18;;;1.77;;
66609;SDS011;53468;48.276;14.416;2023-03-14T23:59:31;4.18;;;1.65;;
